sensor_id;sensor_type;location;lat;lon;timestamp;P1;durP1;ratioP1;P2;durP2;ratioP2
50631;SDS011;49583;45.590;-122.498;2023-03-21T00:02:33;0.40;;;0.40;;
50631;SDS011;49583;45.590;-122.498;2023-03-21T00:04:46;0.30;;;0.30;;
50631;SDS011;49583;45.590;-122.498;2023-03-21T00:07:04;0.50;;;0.50;;
50631;SDS011;49583;45.590;-122.498;2023-03-21T00:09:17;0.30;;;0.30;;
50631;SDS011;49583;45.590;-122.498;2023-03-21T00:11:29;0.30;;;0.30;;
50631;SDS011;49583;45.590;-122.498;2023-03-21T00:13:42;0.80;;;0.40;;
50631;SDS011;49583;45.590;-122.498;2023-03-21T00:15:55;0.50;;;0.40;;
50631;SDS011;49583;45.590;-122.498;2023-03-21T00:18:23;1.20;;;0.60;;
50631;SDS011;49583;45.590;-122.498;2023-03-21T00:20:36;0.60;;;0.60;;
50631;SDS011;49583;45.590;-122.498;2023-03-21T00:22:48;2.00;;;0.80;;
50631;SDS011;49583;45.590;-122.498;2023-03-21T00:25:01;7.90;;;3.70;;
50631;SDS011;49583;45.590;-122.498;2023-03-21T00:27:14;2.00;;;1.70;;
50631;SDS011;49583;45.590;-122.498;2023-03-21T00:29:48;0.80;;;0.80;;
50631;SDS011;49583;45.590;-122.498;2023-03-21T00:32:01;0.80;;;0.80;;
50631;SDS011;49583;45.590;-122.498;2023-03-21T00:34:14;0.90;;;0.40;;
50631;SDS011;49583;45.590;-122.498;2023-03-21T00:36:47;1.80;;;0.50;;
50631;SDS011;49583;45.590;-122.498;2023-03-21T00:39:00;0.30;;;0.30;;
50631;SDS011;49583;45.590;-122.498;2023-03-21T00:41:13;0.30;;;0.30;;
50631;SDS011;49583;45.590;-122.498;2023-03-21T00:43:46;0.70;;;0.30;;
50631;SDS011;49583;45.590;-122.498;2023-03-21T00:46:02;0.40;;;0.40;;
50631;SDS011;49583;45.590;-122.498;2023-03-21T00:48:16;0.60;;;0.40;;
50631;SDS011;49583;45.590;-122.498;2023-03-21T00:50:29;0.40;;;0.40;;
50631;SDS011;49583;45.590;-122.498;2023-03-21T00:52:44;0.60;;;0.50;;
50631;SDS011;49583;45.590;-122.498;2023-03-21T00:54:57;0.40;;;0.40;;
50631;SDS011;49583;45.590;-122.498;2023-03-21T00:57:10;0.30;;;0.30;;
50631;SDS011;49583;45.590;-122.498;2023-03-21T00:59:26;0.70;;;0.40;;
50631;SDS011;49583;45.590;-122.498;2023-03-21T01:01:39;0.60;;;0.50;;
50631;SDS011;49583;45.590;-122.498;2023-03-21T01:03:53;0.40;;;0.40;;
50631;SDS011;49583;45.590;-122.498;2023-03-21T01:06:10;0.30;;;0.30;;
50631;SDS011;49583;45.590;-122.498;2023-03-21T01:08:26;0.90;;;0.50;;
50631;SDS011;49583;45.590;-122.498;2023-03-21T01:10:59;0.40;;;0.40;;
50631;SDS011;49583;45.590;-122.498;2023-03-21T01:13:15;0.40;;;0.40;;
50631;SDS011;49583;45.590;-122.498;2023-03-21T01:15:29;0.60;;;0.50;;
50631;SDS011;49583;45.590;-122.498;2023-03-21T01:17:43;1.10;;;0.60;;
50631;SDS011;49583;45.590;-122.498;2023-03-21T01:19:55;1.80;;;0.40;;
50631;SDS011;49583;45.590;-122.498;2023-03-21T01:22:08;0.60;;;0.60;;
50631;SDS011;49583;45.590;-122.498;2023-03-21T01:24:21;0.60;;;0.60;;
50631;SDS011;49583;45.590;-122.498;2023-03-21T01:26:33;0.60;;;0.60;;
50631;SDS011;49583;45.590;-122.498;2023-03-21T01:28:46;1.50;;;0.60;;
50631;SDS011;49583;45.590;-122.498;2023-03-21T01:31:00;0.70;;;0.60;;
50631;SDS011;49583;45.590;-122.498;2023-03-21T01:33:14;0.90;;;0.50;;
50631;SDS011;49583;45.590;-122.498;2023-03-21T01:35:29;0.30;;;0.30;;
50631;SDS011;49583;45.590;-122.498;2023-03-21T01:37:55;0.80;;;0.80;;
50631;SDS011;49583;45.590;-122.498;2023-03-21T01:40:11;0.90;;;0.50;;
50631;SDS011;49583;45.590;-122.498;2023-03-21T01:42:35;0.70;;;0.60;;
50631;SDS011;49583;45.590;-122.498;2023-03-21T01:44:55;1.40;;;0.80;;
50631;SDS011;49583;45.590;-122.498;2023-03-21T01:47:20;1.50;;;0.70;;
50631;SDS011;49583;45.590;-122.498;2023-03-21T01:49:40;1.10;;;0.70;;
50631;SDS011;49583;45.590;-122.498;2023-03-21T01:52:20;1.70;;;0.70;;
50631;SDS011;49583;45.590;-122.498;2023-03-21T01:54:49;0.30;;;0.30;;
50631;SDS011;49583;45.590;-122.498;2023-03-21T01:57:07;1.70;;;0.50;;
50631;SDS011;49583;45.590;-122.498;2023-03-21T01:59:28;0.90;;;0.60;;
50631;SDS011;49583;45.590;-122.498;2023-03-21T02:01:44;0.60;;;0.60;;
50631;SDS011;49583;45.590;-122.498;2023-03-21T02:04:02;0.40;;;0.40;;
50631;SDS011;49583;45.590;-122.498;2023-03-21T02:06:31;0.60;;;0.50;;
50631;SDS011;49583;45.590;-122.498;2023-03-21T02:08:59;0.80;;;0.80;;
50631;SDS011;49583;45.590;-122.498;2023-03-21T02:11:15;0.60;;;0.60;;
50631;SDS011;49583;45.590;-122.498;2023-03-21T02:13:28;2.70;;;0.80;;
50631;SDS011;49583;45.590;-122.498;2023-03-21T02:15:43;1.60;;;0.50;;
50631;SDS011;49583;45.590;-122.498;2023-03-21T02:18:12;0.50;;;0.50;;
50631;SDS011;49583;45.590;-122.498;2023-03-21T02:26:15;0.70;;;0.60;;
50631;SDS011;49583;45.590;-122.498;2023-03-21T02:28:54;0.80;;;0.80;;
50631;SDS011;49583;45.590;-122.498;2023-03-21T02:31:27;1.40;;;0.60;;
50631;SDS011;49583;45.590;-122.498;2023-03-21T02:33:56;0.40;;;0.40;;
50631;SDS011;49583;45.590;-122.498;2023-03-21T02:36:29;1.60;;;0.80;;
50631;SDS011;49583;45.590;-122.498;2023-03-21T02:38:58;0.50;;;0.50;;
50631;SDS011;49583;45.590;-122.498;2023-03-21T02:41:18;0.60;;;0.60;;
50631;SDS011;49583;45.590;-122.498;2023-03-21T02:43:46;0.60;;;0.50;;
50631;SDS011;49583;45.590;-122.498;2023-03-21T02:46:09;0.50;;;0.50;;
50631;SDS011;49583;45.590;-122.498;2023-03-21T02:48:33;0.50;;;0.50;;
50631;SDS011;49583;45.590;-122.498;2023-03-21T02:50:57;0.60;;;0.60;;
50631;SDS011;49583;45.590;-122.498;2023-03-21T02:53:15;0.80;;;0.80;;
50631;SDS011;49583;45.590;-122.498;2023-03-21T02:55:31;1.40;;;0.60;;
50631;SDS011;49583;45.590;-122.498;2023-03-21T02:57:47;1.70;;;0.50;;
50631;SDS011;49583;45.590;-122.498;2023-03-21T03:00:03;0.60;;;0.60;;
50631;SDS011;49583;45.590;-122.498;2023-03-21T03:02:25;0.60;;;0.50;;
50631;SDS011;49583;45.590;-122.498;2023-03-21T03:04:39;0.40;;;0.40;;
50631;SDS011;49583;45.590;-122.498;2023-03-21T03:06:59;0.50;;;0.50;;
50631;SDS011;49583;45.590;-122.498;2023-03-21T03:09:23;1.00;;;0.60;;
50631;SDS011;49583;45.590;-122.498;2023-03-21T03:11:49;0.50;;;0.50;;
50631;SDS011;49583;45.590;-122.498;2023-03-21T03:17:12;0.40;;;0.40;;
50631;SDS011;49583;45.590;-122.498;2023-03-21T03:19:34;0.80;;;0.60;;
50631;SDS011;49583;45.590;-122.498;2023-03-21T03:21:57;0.90;;;0.50;;
50631;SDS011;49583;45.590;-122.498;2023-03-21T03:24:18;1.70;;;0.80;;
50631;SDS011;49583;45.590;-122.498;2023-03-21T03:26:38;1.00;;;0.50;;
50631;SDS011;49583;45.590;-122.498;2023-03-21T03:28:58;0.50;;;0.40;;
50631;SDS011;49583;45.590;-122.498;2023-03-21T03:31:15;2.30;;;0.70;;
50631;SDS011;49583;45.590;-122.498;2023-03-21T03:33:37;1.70;;;0.80;;
50631;SDS011;49583;45.590;-122.498;2023-03-21T03:35:55;0.70;;;0.70;;
50631;SDS011;49583;45.590;-122.498;2023-03-21T03:38:14;1.80;;;0.50;;
50631;SDS011;49583;45.590;-122.498;2023-03-21T03:40:30;0.50;;;0.50;;
50631;SDS011;49583;45.590;-122.498;2023-03-21T03:43:02;0.40;;;0.40;;
50631;SDS011;49583;45.590;-122.498;2023-03-21T03:45:19;1.80;;;0.50;;
50631;SDS011;49583;45.590;-122.498;2023-03-21T03:47:38;0.50;;;0.50;;
50631;SDS011;49583;45.590;-122.498;2023-03-21T03:50:07;0.70;;;0.70;;
50631;SDS011;49583;45.590;-122.498;2023-03-21T03:52:28;1.20;;;0.60;;
50631;SDS011;49583;45.590;-122.498;2023-03-21T03:54:59;2.40;;;1.30;;
50631;SDS011;49583;45.590;-122.498;2023-03-21T03:57:15;1.90;;;0.70;;
50631;SDS011;49583;45.590;-122.498;2023-03-21T03:59:29;2.70;;;2.30;;
50631;SDS011;49583;45.590;-122.498;2023-03-21T04:02:05;1.00;;;0.70;;
50631;SDS011;49583;45.590;-122.498;2023-03-21T04:04:18;0.80;;;0.50;;
50631;SDS011;49583;45.590;-122.498;2023-03-21T04:06:36;5.00;;;0.60;;
50631;SDS011;49583;45.590;-122.498;2023-03-21T04:08:50;0.70;;;0.70;;
50631;SDS011;49583;45.590;-122.498;2023-03-21T04:11:08;1.50;;;0.50;;
50631;SDS011;49583;45.590;-122.498;2023-03-21T04:13:25;1.60;;;0.80;;
50631;SDS011;49583;45.590;-122.498;2023-03-21T04:15:48;3.40;;;1.20;;
50631;SDS011;49583;45.590;-122.498;2023-03-21T04:18:01;1.90;;;1.10;;
50631;SDS011;49583;45.590;-122.498;2023-03-21T04:20:15;4.40;;;1.90;;
50631;SDS011;49583;45.590;-122.498;2023-03-21T04:22:42;1.40;;;0.90;;
50631;SDS011;49583;45.590;-122.498;2023-03-21T04:24:55;0.50;;;0.50;;
50631;SDS011;49583;45.590;-122.498;2023-03-21T04:27:08;1.50;;;0.50;;
50631;SDS011;49583;45.590;-122.498;2023-03-21T04:29:38;2.50;;;0.70;;
50631;SDS011;49583;45.590;-122.498;2023-03-21T04:32:18;0.80;;;0.50;;
50631;SDS011;49583;45.590;-122.498;2023-03-21T04:34:39;0.40;;;0.40;;
50631;SDS011;49583;45.590;-122.498;2023-03-21T04:36:56;2.10;;;0.80;;
50631;SDS011;49583;45.590;-122.498;2023-03-21T04:39:18;1.60;;;0.70;;
50631;SDS011;49583;45.590;-122.498;2023-03-21T04:41:33;7.60;;;3.50;;
50631;SDS011;49583;45.590;-122.498;2023-03-21T04:43:47;0.70;;;0.60;;
50631;SDS011;49583;45.590;-122.498;2023-03-21T04:46:00;1.30;;;0.50;;
50631;SDS011;49583;45.590;-122.498;2023-03-21T04:52:07;2.30;;;1.00;;
50631;SDS011;49583;45.590;-122.498;2023-03-21T04:54:20;0.60;;;0.50;;
50631;SDS011;49583;45.590;-122.498;2023-03-21T04:56:35;0.70;;;0.70;;
50631;SDS011;49583;45.590;-122.498;2023-03-21T04:58:49;1.80;;;0.90;;
50631;SDS011;49583;45.590;-122.498;2023-03-21T05:01:02;2.20;;;1.10;;
50631;SDS011;49583;45.590;-122.498;2023-03-21T05:03:15;5.10;;;2.30;;
50631;SDS011;49583;45.590;-122.498;2023-03-21T05:05:28;1.20;;;0.80;;
50631;SDS011;49583;45.590;-122.498;2023-03-21T05:07:41;2.20;;;1.10;;
50631;SDS011;49583;45.590;-122.498;2023-03-21T05:09:54;2.10;;;1.10;;
50631;SDS011;49583;45.590;-122.498;2023-03-21T05:12:08;1.60;;;0.90;;
50631;SDS011;49583;45.590;-122.498;2023-03-21T05:14:22;2.00;;;0.80;;
50631;SDS011;49583;45.590;-122.498;2023-03-21T05:16:37;2.70;;;1.30;;
50631;SDS011;49583;45.590;-122.498;2023-03-21T05:18:55;2.50;;;1.20;;
50631;SDS011;49583;45.590;-122.498;2023-03-21T05:21:14;1.80;;;0.90;;
50631;SDS011;49583;45.590;-122.498;2023-03-21T05:23:27;1.00;;;0.50;;
50631;SDS011;49583;45.590;-122.498;2023-03-21T05:25:45;0.90;;;0.50;;
50631;SDS011;49583;45.590;-122.498;2023-03-21T05:28:16;0.70;;;0.70;;
50631;SDS011;49583;45.590;-122.498;2023-03-21T05:30:30;0.50;;;0.50;;
50631;SDS011;49583;45.590;-122.498;2023-03-21T05:32:43;1.30;;;0.60;;
50631;SDS011;49583;45.590;-122.498;2023-03-21T05:34:57;0.60;;;0.50;;
50631;SDS011;49583;45.590;-122.498;2023-03-21T05:37:11;2.90;;;0.60;;
50631;SDS011;49583;45.590;-122.498;2023-03-21T05:39:26;0.90;;;0.80;;
50631;SDS011;49583;45.590;-122.498;2023-03-21T05:41:47;1.40;;;0.60;;
50631;SDS011;49583;45.590;-122.498;2023-03-21T05:44:00;0.60;;;0.50;;
50631;SDS011;49583;45.590;-122.498;2023-03-21T05:46:14;4.20;;;0.60;;
50631;SDS011;49583;45.590;-122.498;2023-03-21T05:48:28;0.50;;;0.50;;
50631;SDS011;49583;45.590;-122.498;2023-03-21T05:50:51;0.90;;;0.60;;
50631;SDS011;49583;45.590;-122.498;2023-03-21T05:53:05;0.80;;;0.50;;
50631;SDS011;49583;45.590;-122.498;2023-03-21T05:55:21;2.40;;;0.60;;
50631;SDS011;49583;45.590;-122.498;2023-03-21T05:57:35;1.20;;;0.70;;
50631;SDS011;49583;45.590;-122.498;2023-03-21T05:59:57;1.80;;;0.90;;
50631;SDS011;49583;45.590;-122.498;2023-03-21T06:02:20;1.80;;;0.70;;
50631;SDS011;49583;45.590;-122.498;2023-03-21T06:04:34;8.80;;;0.90;;
50631;SDS011;49583;45.590;-122.498;2023-03-21T06:06:47;2.50;;;0.70;;
50631;SDS011;49583;45.590;-122.498;2023-03-21T06:09:00;1.30;;;0.50;;
50631;SDS011;49583;45.590;-122.498;2023-03-21T06:11:17;1.40;;;0.70;;
50631;SDS011;49583;45.590;-122.498;2023-03-21T06:13:55;1.00;;;0.60;;
50631;SDS011;49583;45.590;-122.498;2023-03-21T06:16:09;1.90;;;0.60;;
50631;SDS011;49583;45.590;-122.498;2023-03-21T06:18:22;3.60;;;0.70;;
50631;SDS011;49583;45.590;-122.498;2023-03-21T06:20:42;0.80;;;0.60;;
50631;SDS011;49583;45.590;-122.498;2023-03-21T06:22:56;2.00;;;0.70;;
50631;SDS011;49583;45.590;-122.498;2023-03-21T06:25:09;2.60;;;1.00;;
50631;SDS011;49583;45.590;-122.498;2023-03-21T06:27:22;2.30;;;0.90;;
50631;SDS011;49583;45.590;-122.498;2023-03-21T06:29:36;3.40;;;0.80;;
50631;SDS011;49583;45.590;-122.498;2023-03-21T06:31:49;2.10;;;0.60;;
50631;SDS011;49583;45.590;-122.498;2023-03-21T06:34:02;4.40;;;0.90;;
50631;SDS011;49583;45.590;-122.498;2023-03-21T06:36:17;6.10;;;0.90;;
50631;SDS011;49583;45.590;-122.498;2023-03-21T06:38:30;5.60;;;0.70;;
50631;SDS011;49583;45.590;-122.498;2023-03-21T06:40:46;4.10;;;0.90;;
50631;SDS011;49583;45.590;-122.498;2023-03-21T06:43:00;3.30;;;0.60;;
50631;SDS011;49583;45.590;-122.498;2023-03-21T06:45:14;4.00;;;0.60;;
50631;SDS011;49583;45.590;-122.498;2023-03-21T06:47:27;1.10;;;0.70;;
50631;SDS011;49583;45.590;-122.498;2023-03-21T06:49:41;2.80;;;0.90;;
50631;SDS011;49583;45.590;-122.498;2023-03-21T06:51:54;1.90;;;0.80;;
50631;SDS011;49583;45.590;-122.498;2023-03-21T06:54:07;3.50;;;1.00;;
50631;SDS011;49583;45.590;-122.498;2023-03-21T06:56:43;2.30;;;0.90;;
50631;SDS011;49583;45.590;-122.498;2023-03-21T06:59:01;2.60;;;0.80;;
50631;SDS011;49583;45.590;-122.498;2023-03-21T07:01:35;1.40;;;0.70;;
50631;SDS011;49583;45.590;-122.498;2023-03-21T07:03:49;7.00;;;0.90;;
50631;SDS011;49583;45.590;-122.498;2023-03-21T07:06:05;6.50;;;1.00;;
50631;SDS011;49583;45.590;-122.498;2023-03-21T07:08:20;4.30;;;0.90;;
50631;SDS011;49583;45.590;-122.498;2023-03-21T07:10:33;2.30;;;0.70;;
50631;SDS011;49583;45.590;-122.498;2023-03-21T07:12:51;1.50;;;0.60;;
50631;SDS011;49583;45.590;-122.498;2023-03-21T07:15:14;3.60;;;0.90;;
50631;SDS011;49583;45.590;-122.498;2023-03-21T07:17:29;1.30;;;0.80;;
50631;SDS011;49583;45.590;-122.498;2023-03-21T07:19:42;1.60;;;1.00;;
50631;SDS011;49583;45.590;-122.498;2023-03-21T07:21:56;1.00;;;0.90;;
50631;SDS011;49583;45.590;-122.498;2023-03-21T07:24:09;1.20;;;0.70;;
50631;SDS011;49583;45.590;-122.498;2023-03-21T07:26:21;2.60;;;0.70;;
50631;SDS011;49583;45.590;-122.498;2023-03-21T07:28:36;1.50;;;0.80;;
50631;SDS011;49583;45.590;-122.498;2023-03-21T07:30:52;3.20;;;0.80;;
50631;SDS011;49583;45.590;-122.498;2023-03-21T07:33:07;1.10;;;0.70;;
50631;SDS011;49583;45.590;-122.498;2023-03-21T07:35:20;2.50;;;0.80;;
50631;SDS011;49583;45.590;-122.498;2023-03-21T07:37:33;1.50;;;0.80;;
50631;SDS011;49583;45.590;-122.498;2023-03-21T07:39:46;4.40;;;1.00;;
50631;SDS011;49583;45.590;-122.498;2023-03-21T07:42:03;4.00;;;0.90;;
50631;SDS011;49583;45.590;-122.498;2023-03-21T07:44:18;1.50;;;0.70;;
50631;SDS011;49583;45.590;-122.498;2023-03-21T07:46:41;2.70;;;1.10;;
50631;SDS011;49583;45.590;-122.498;2023-03-21T07:48:54;1.20;;;0.80;;
50631;SDS011;49583;45.590;-122.498;2023-03-21T07:51:08;1.80;;;1.10;;
50631;SDS011;49583;45.590;-122.498;2023-03-21T07:53:21;3.70;;;1.00;;
50631;SDS011;49583;45.590;-122.498;2023-03-21T07:55:35;2.20;;;0.80;;
50631;SDS011;49583;45.590;-122.498;2023-03-21T07:57:50;1.60;;;1.10;;
50631;SDS011;49583;45.590;-122.498;2023-03-21T08:00:03;3.20;;;1.10;;
50631;SDS011;49583;45.590;-122.498;2023-03-21T08:02:20;1.80;;;0.90;;
50631;SDS011;49583;45.590;-122.498;2023-03-21T08:04:34;3.20;;;0.80;;
50631;SDS011;49583;45.590;-122.498;2023-03-21T08:06:46;1.80;;;1.40;;
50631;SDS011;49583;45.590;-122.498;2023-03-21T08:09:01;3.40;;;0.80;;
50631;SDS011;49583;45.590;-122.498;2023-03-21T08:11:14;3.20;;;1.40;;
50631;SDS011;49583;45.590;-122.498;2023-03-21T08:13:28;1.60;;;0.90;;
50631;SDS011;49583;45.590;-122.498;2023-03-21T08:15:40;1.20;;;0.70;;
50631;SDS011;49583;45.590;-122.498;2023-03-21T08:17:54;3.30;;;1.00;;
50631;SDS011;49583;45.590;-122.498;2023-03-21T08:20:10;3.70;;;1.00;;
50631;SDS011;49583;45.590;-122.498;2023-03-21T08:22:26;2.40;;;1.10;;
50631;SDS011;49583;45.590;-122.498;2023-03-21T08:24:39;4.20;;;1.30;;
50631;SDS011;49583;45.590;-122.498;2023-03-21T08:26:53;1.50;;;0.80;;
50631;SDS011;49583;45.590;-122.498;2023-03-21T08:29:06;1.10;;;0.80;;
50631;SDS011;49583;45.590;-122.498;2023-03-21T08:31:18;1.70;;;1.00;;
50631;SDS011;49583;45.590;-122.498;2023-03-21T08:33:32;1.30;;;0.70;;
50631;SDS011;49583;45.590;-122.498;2023-03-21T08:35:45;0.80;;;0.80;;
50631;SDS011;49583;45.590;-122.498;2023-03-21T08:37:58;4.10;;;1.00;;
50631;SDS011;49583;45.590;-122.498;2023-03-21T08:40:14;1.80;;;0.90;;
50631;SDS011;49583;45.590;-122.498;2023-03-21T08:42:28;1.50;;;1.00;;
50631;SDS011;49583;45.590;-122.498;2023-03-21T08:44:41;1.40;;;0.80;;
50631;SDS011;49583;45.590;-122.498;2023-03-21T08:46:54;2.80;;;1.20;;
50631;SDS011;49583;45.590;-122.498;2023-03-21T08:49:07;1.40;;;0.90;;
50631;SDS011;49583;45.590;-122.498;2023-03-21T08:51:21;1.30;;;1.10;;
50631;SDS011;49583;45.590;-122.498;2023-03-21T08:53:33;3.20;;;1.30;;
50631;SDS011;49583;45.590;-122.498;2023-03-21T08:55:48;3.30;;;1.40;;
50631;SDS011;49583;45.590;-122.498;2023-03-21T08:58:01;1.70;;;1.00;;
50631;SDS011;49583;45.590;-122.498;2023-03-21T09:00:15;3.30;;;0.80;;
50631;SDS011;49583;45.590;-122.498;2023-03-21T09:02:30;1.80;;;1.20;;
50631;SDS011;49583;45.590;-122.498;2023-03-21T09:04:43;2.10;;;1.30;;
50631;SDS011;49583;45.590;-122.498;2023-03-21T09:06:56;2.30;;;0.90;;
50631;SDS011;49583;45.590;-122.498;2023-03-21T09:09:11;1.40;;;1.00;;
50631;SDS011;49583;45.590;-122.498;2023-03-21T09:11:24;2.80;;;1.10;;
50631;SDS011;49583;45.590;-122.498;2023-03-21T09:13:37;1.90;;;1.10;;
50631;SDS011;49583;45.590;-122.498;2023-03-21T09:15:50;3.00;;;1.20;;
50631;SDS011;49583;45.590;-122.498;2023-03-21T09:18:04;2.40;;;1.30;;
50631;SDS011;49583;45.590;-122.498;2023-03-21T09:20:23;3.40;;;1.20;;
50631;SDS011;49583;45.590;-122.498;2023-03-21T09:22:41;2.80;;;1.20;;
50631;SDS011;49583;45.590;-122.498;2023-03-21T09:24:54;2.10;;;1.40;;
50631;SDS011;49583;45.590;-122.498;2023-03-21T09:27:09;1.90;;;1.00;;
50631;SDS011;49583;45.590;-122.498;2023-03-21T09:29:22;2.10;;;1.10;;
50631;SDS011;49583;45.590;-122.498;2023-03-21T09:31:36;3.80;;;1.10;;
50631;SDS011;49583;45.590;-122.498;2023-03-21T09:33:50;3.40;;;1.20;;
50631;SDS011;49583;45.590;-122.498;2023-03-21T09:36:05;1.80;;;0.90;;
50631;SDS011;49583;45.590;-122.498;2023-03-21T09:38:20;2.10;;;1.00;;
50631;SDS011;49583;45.590;-122.498;2023-03-21T09:40:48;2.40;;;1.00;;
50631;SDS011;49583;45.590;-122.498;2023-03-21T09:43:16;1.50;;;1.30;;
50631;SDS011;49583;45.590;-122.498;2023-03-21T09:45:45;2.20;;;1.00;;
50631;SDS011;49583;45.590;-122.498;2023-03-21T09:48:08;3.60;;;1.00;;
50631;SDS011;49583;45.590;-122.498;2023-03-21T09:50:38;1.10;;;0.90;;
50631;SDS011;49583;45.590;-122.498;2023-03-21T09:52:54;0.80;;;0.80;;
50631;SDS011;49583;45.590;-122.498;2023-03-21T09:55:14;1.20;;;1.00;;
50631;SDS011;49583;45.590;-122.498;2023-03-21T09:57:30;2.30;;;1.00;;
50631;SDS011;49583;45.590;-122.498;2023-03-21T09:59:48;3.40;;;1.10;;
50631;SDS011;49583;45.590;-122.498;2023-03-21T10:02:05;1.70;;;1.20;;
50631;SDS011;49583;45.590;-122.498;2023-03-21T10:04:39;1.40;;;0.90;;
50631;SDS011;49583;45.590;-122.498;2023-03-21T10:06:55;1.40;;;1.20;;
50631;SDS011;49583;45.590;-122.498;2023-03-21T10:09:13;1.40;;;0.90;;
50631;SDS011;49583;45.590;-122.498;2023-03-21T10:11:31;3.20;;;1.20;;
50631;SDS011;49583;45.590;-122.498;2023-03-21T10:13:53;1.90;;;1.00;;
50631;SDS011;49583;45.590;-122.498;2023-03-21T10:16:11;3.60;;;1.00;;
50631;SDS011;49583;45.590;-122.498;2023-03-21T10:18:28;1.50;;;1.20;;
50631;SDS011;49583;45.590;-122.498;2023-03-21T10:20:42;5.80;;;1.30;;
50631;SDS011;49583;45.590;-122.498;2023-03-21T10:22:55;3.10;;;1.40;;
50631;SDS011;49583;45.590;-122.498;2023-03-21T10:25:13;2.60;;;1.30;;
50631;SDS011;49583;45.590;-122.498;2023-03-21T10:27:28;2.80;;;1.00;;
50631;SDS011;49583;45.590;-122.498;2023-03-21T10:29:43;1.50;;;1.30;;
50631;SDS011;49583;45.590;-122.498;2023-03-21T10:32:00;1.80;;;1.00;;
50631;SDS011;49583;45.590;-122.498;2023-03-21T10:34:19;2.00;;;1.70;;
50631;SDS011;49583;45.590;-122.498;2023-03-21T10:36:36;1.00;;;0.90;;
50631;SDS011;49583;45.590;-122.498;2023-03-21T10:38:51;2.90;;;1.50;;
50631;SDS011;49583;45.590;-122.498;2023-03-21T10:41:09;1.70;;;1.10;;
50631;SDS011;49583;45.590;-122.498;2023-03-21T10:43:32;1.20;;;1.00;;
50631;SDS011;49583;45.590;-122.498;2023-03-21T10:45:48;2.00;;;1.20;;
50631;SDS011;49583;45.590;-122.498;2023-03-21T10:48:02;4.50;;;1.10;;
50631;SDS011;49583;45.590;-122.498;2023-03-21T10:50:19;1.40;;;0.90;;
50631;SDS011;49583;45.590;-122.498;2023-03-21T10:52:40;1.80;;;0.90;;
50631;SDS011;49583;45.590;-122.498;2023-03-21T10:55:06;1.20;;;1.10;;
50631;SDS011;49583;45.590;-122.498;2023-03-21T10:57:26;1.20;;;0.90;;
50631;SDS011;49583;45.590;-122.498;2023-03-21T10:59:40;5.10;;;1.40;;
50631;SDS011;49583;45.590;-122.498;2023-03-21T11:01:58;2.90;;;1.80;;
50631;SDS011;49583;45.590;-122.498;2023-03-21T11:04:13;2.40;;;1.70;;
50631;SDS011;49583;45.590;-122.498;2023-03-21T11:06:29;2.00;;;1.30;;
50631;SDS011;49583;45.590;-122.498;2023-03-21T11:08:46;3.70;;;1.30;;
50631;SDS011;49583;45.590;-122.498;2023-03-21T11:11:05;1.90;;;1.30;;
50631;SDS011;49583;45.590;-122.498;2023-03-21T11:13:26;2.20;;;1.00;;
50631;SDS011;49583;45.590;-122.498;2023-03-21T11:15:45;3.60;;;1.60;;
50631;SDS011;49583;45.590;-122.498;2023-03-21T11:18:12;1.20;;;1.10;;
50631;SDS011;49583;45.590;-122.498;2023-03-21T11:20:28;3.30;;;1.40;;
50631;SDS011;49583;45.590;-122.498;2023-03-21T11:22:42;3.40;;;1.00;;
50631;SDS011;49583;45.590;-122.498;2023-03-21T11:24:58;2.30;;;1.00;;
50631;SDS011;49583;45.590;-122.498;2023-03-21T11:27:14;2.40;;;1.30;;
50631;SDS011;49583;45.590;-122.498;2023-03-21T11:29:31;2.70;;;1.10;;
50631;SDS011;49583;45.590;-122.498;2023-03-21T11:31:47;2.90;;;1.30;;
50631;SDS011;49583;45.590;-122.498;2023-03-21T11:34:01;5.40;;;1.40;;
50631;SDS011;49583;45.590;-122.498;2023-03-21T11:38:49;1.20;;;1.00;;
50631;SDS011;49583;45.590;-122.498;2023-03-21T11:41:07;2.20;;;1.30;;
50631;SDS011;49583;45.590;-122.498;2023-03-21T11:43:31;1.90;;;1.20;;
50631;SDS011;49583;45.590;-122.498;2023-03-21T11:45:58;2.10;;;1.30;;
50631;SDS011;49583;45.590;-122.498;2023-03-21T11:48:15;3.30;;;1.40;;
50631;SDS011;49583;45.590;-122.498;2023-03-21T11:50:28;3.00;;;1.10;;
50631;SDS011;49583;45.590;-122.498;2023-03-21T11:52:45;2.20;;;1.20;;
50631;SDS011;49583;45.590;-122.498;2023-03-21T11:57:58;3.00;;;1.70;;
50631;SDS011;49583;45.590;-122.498;2023-03-21T12:00:25;2.30;;;2.10;;
50631;SDS011;49583;45.590;-122.498;2023-03-21T12:05:28;5.00;;;1.80;;
50631;SDS011;49583;45.590;-122.498;2023-03-21T12:07:48;1.80;;;1.30;;
50631;SDS011;49583;45.590;-122.498;2023-03-21T12:10:25;4.80;;;1.60;;
50631;SDS011;49583;45.590;-122.498;2023-03-21T12:12:44;1.20;;;1.00;;
50631;SDS011;49583;45.590;-122.498;2023-03-21T12:15:07;2.00;;;1.20;;
50631;SDS011;49583;45.590;-122.498;2023-03-21T12:17:31;1.50;;;1.40;;
50631;SDS011;49583;45.590;-122.498;2023-03-21T12:20:00;1.20;;;1.10;;
50631;SDS011;49583;45.590;-122.498;2023-03-21T12:22:24;2.00;;;1.60;;
50631;SDS011;49583;45.590;-122.498;2023-03-21T12:24:47;2.40;;;1.60;;
50631;SDS011;49583;45.590;-122.498;2023-03-21T12:27:04;2.50;;;1.50;;
50631;SDS011;49583;45.590;-122.498;2023-03-21T12:29:33;3.70;;;1.80;;
50631;SDS011;49583;45.590;-122.498;2023-03-21T12:32:07;1.80;;;1.40;;
50631;SDS011;49583;45.590;-122.498;2023-03-21T12:34:32;2.00;;;1.60;;
50631;SDS011;49583;45.590;-122.498;2023-03-21T12:37:04;3.60;;;1.10;;
50631;SDS011;49583;45.590;-122.498;2023-03-21T12:39:28;3.80;;;1.50;;
50631;SDS011;49583;45.590;-122.498;2023-03-21T12:41:44;3.10;;;1.60;;
50631;SDS011;49583;45.590;-122.498;2023-03-21T12:44:09;2.60;;;1.80;;
50631;SDS011;49583;45.590;-122.498;2023-03-21T12:46:25;1.80;;;1.70;;
50631;SDS011;49583;45.590;-122.498;2023-03-21T12:48:42;4.10;;;2.00;;
50631;SDS011;49583;45.590;-122.498;2023-03-21T12:50:59;2.70;;;1.30;;
50631;SDS011;49583;45.590;-122.498;2023-03-21T12:53:22;4.00;;;1.50;;
50631;SDS011;49583;45.590;-122.498;2023-03-21T12:55:43;3.20;;;1.70;;
50631;SDS011;49583;45.590;-122.498;2023-03-21T12:57:56;4.20;;;1.70;;
50631;SDS011;49583;45.590;-122.498;2023-03-21T13:00:16;2.50;;;1.80;;
50631;SDS011;49583;45.590;-122.498;2023-03-21T13:02:35;2.70;;;1.60;;
50631;SDS011;49583;45.590;-122.498;2023-03-21T13:04:53;3.10;;;1.70;;
50631;SDS011;49583;45.590;-122.498;2023-03-21T13:07:13;4.50;;;1.90;;
50631;SDS011;49583;45.590;-122.498;2023-03-21T13:09:33;3.30;;;2.00;;
50631;SDS011;49583;45.590;-122.498;2023-03-21T13:11:47;4.80;;;1.90;;
50631;SDS011;49583;45.590;-122.498;2023-03-21T13:14:05;5.00;;;2.10;;
50631;SDS011;49583;45.590;-122.498;2023-03-21T13:16:21;3.30;;;1.60;;
50631;SDS011;49583;45.590;-122.498;2023-03-21T13:18:46;1.70;;;1.60;;
50631;SDS011;49583;45.590;-122.498;2023-03-21T13:21:07;2.60;;;1.90;;
50631;SDS011;49583;45.590;-122.498;2023-03-21T13:23:27;3.10;;;2.20;;
50631;SDS011;49583;45.590;-122.498;2023-03-21T13:25:47;2.30;;;1.90;;
50631;SDS011;49583;45.590;-122.498;2023-03-21T13:28:02;2.40;;;2.20;;
50631;SDS011;49583;45.590;-122.498;2023-03-21T13:30:24;5.10;;;2.00;;
50631;SDS011;49583;45.590;-122.498;2023-03-21T13:32:41;2.70;;;1.80;;
50631;SDS011;49583;45.590;-122.498;2023-03-21T13:34:55;2.40;;;2.00;;
50631;SDS011;49583;45.590;-122.498;2023-03-21T13:37:14;3.80;;;2.00;;